Rechercher aéroport 
image banner adimage banner ad
image banner ad

SVCG - Carbones Del Guasare

Situé à Zulia, Venezuela

ICAO - SVCG, IATA - CUV

Données fournies par Airmate  

Information générale

Coordonnées: N11°0'29" W72°16'26"
Élévation : 99 feet MSL.
 
Voir autres Aéroports à Zulia

Données opérationnelles

Accessible au public
Heure actuelle UTC:
Heure actuelle locale:
Météo à : SVMC - Maracaibo / La Chinita Intl ( 78 km )
METAR: SVMC 201402Z AUTO 23008KT NCD 23/22 Q1011
TAF: TAF SVMC 201000Z 2012/2112 00000KT 9999 BKN013 TX35/2019Z TN24/2008Z TEMPO 2012/2014 16005KT 9000 DZ BKN013 FM201500 08006KT 9999 SCT013
Voir NOTAMs / SUP AIP / TFR affectant cet aéroport [VIEW]
Fréquences de communication: [VIEW]

Pistes:

Identifiant RWYQFULongueur (ft)Largeur (ft)SurfaceLDA (ft)
1093°345070ASP
28273°345070ASP

Coordonnées de l'aéroport

Adresse: Zulia Venezuela

Vue satellite de SVCG